createdAt,value
2023-05-05T00:02:50.367Z,9.43
2023-05-05T00:05:55.345Z,9.25
2023-05-05T00:08:58.356Z,7.50
2023-05-05T00:12:01.995Z,7.07
2023-05-05T00:15:04.935Z,7.15
2023-05-05T00:18:07.944Z,10.18
2023-05-05T00:21:10.522Z,8.13
2023-05-05T00:24:13.784Z,7.87
2023-05-05T00:27:16.220Z,7.30
2023-05-05T00:30:19.214Z,8.00
2023-05-05T00:33:21.986Z,6.57
2023-05-05T00:36:24.840Z,9.13
2023-05-05T00:39:27.452Z,12.50
2023-05-05T00:42:41.565Z,8.30
2023-05-05T00:45:47.557Z,10.88
2023-05-05T00:48:51.171Z,8.57
2023-05-05T00:51:53.722Z,10.23
2023-05-05T00:54:56.827Z,9.90
2023-05-05T00:58:00.567Z,9.00
2023-05-05T01:01:03.762Z,8.68
2023-05-05T01:04:07.241Z,10.27
2023-05-05T01:07:13.033Z,9.50
2023-05-05T01:10:20.849Z,9.43
2023-05-05T01:13:42.803Z,14.13
2023-05-05T01:17:05.462Z,10.88
2023-05-05T01:20:21.603Z,11.12
2023-05-05T01:23:49.926Z,9.48
2023-05-05T01:27:08.548Z,11.90
2023-05-05T01:30:29.687Z,9.23
2023-05-05T01:33:36.677Z,11.60
2023-05-05T01:36:42.966Z,8.02
2023-05-05T01:39:49.883Z,9.70
2023-05-05T01:42:54.516Z,9.43
2023-05-05T01:45:57.804Z,9.03
2023-05-05T01:49:01.001Z,9.52
2023-05-05T01:52:05.170Z,11.00
2023-05-05T01:55:08.544Z,9.85
2023-05-05T01:58:12.288Z,9.13
2023-05-05T02:01:15.519Z,9.03
2023-05-05T02:04:22.734Z,14.30
2023-05-05T02:07:26.342Z,12.02
2023-05-05T02:10:30.061Z,9.63
2023-05-05T02:13:32.936Z,12.27
2023-05-05T02:16:37.369Z,9.13
2023-05-05T02:19:43.249Z,11.12
2023-05-05T02:22:46.156Z,8.43
2023-05-05T02:25:55.786Z,9.32
2023-05-05T02:29:12.488Z,10.87
2023-05-05T02:32:19.429Z,10.17
2023-05-05T02:35:24.523Z,12.30
2023-05-05T02:38:29.371Z,9.73
2023-05-05T02:41:34.847Z,9.50
2023-05-05T02:44:42.403Z,11.23
2023-05-05T02:47:45.405Z,11.80
2023-05-05T02:50:48.546Z,10.32
2023-05-05T02:53:52.625Z,11.85
2023-05-05T02:56:57.472Z,11.35
2023-05-05T03:00:23.240Z,11.43
2023-05-05T03:03:39.813Z,13.23
2023-05-05T03:06:48.036Z,13.65
2023-05-05T03:10:00.344Z,11.45
2023-05-05T03:13:03.285Z,14.45
2023-05-05T03:16:07.524Z,15.10
2023-05-05T03:19:12.260Z,12.07
2023-05-05T03:22:15.827Z,12.32
2023-05-05T03:25:18.954Z,13.62
2023-05-05T03:28:22.438Z,16.12
2023-05-05T03:31:25.583Z,13.23
2023-05-05T03:34:28.957Z,13.83
2023-05-05T03:37:32.245Z,14.95
2023-05-05T03:40:43.720Z,16.23
2023-05-05T03:43:48.413Z,17.62
2023-05-05T03:46:51.378Z,17.80
2023-05-05T03:49:54.531Z,21.13
2023-05-05T03:52:57.454Z,20.62
2023-05-05T03:56:00.204Z,18.77
2023-05-05T03:59:03.661Z,18.15
2023-05-05T04:02:06.208Z,18.87
2023-05-05T04:05:09.414Z,18.90
2023-05-05T04:08:12.046Z,21.08
2023-05-05T04:11:14.865Z,18.75
2023-05-05T04:14:17.776Z,21.33
2023-05-05T04:17:20.641Z,20.57
2023-05-05T04:20:24.227Z,20.43
2023-05-05T04:23:27.055Z,22.62
2023-05-05T04:26:29.933Z,20.55
2023-05-05T04:29:32.902Z,20.83
2023-05-05T04:32:36.177Z,24.00
2023-05-05T04:35:39.729Z,24.03
2023-05-05T04:38:42.920Z,23.27
2023-05-05T04:41:45.774Z,21.30
2023-05-05T04:44:48.405Z,21.10
2023-05-05T04:47:52.082Z,25.73
2023-05-05T04:50:54.933Z,25.80
2023-05-05T04:53:58.384Z,24.90
2023-05-05T04:57:00.849Z,23.77
2023-05-05T05:00:05.484Z,22.17
2023-05-05T05:03:08.296Z,24.80
2023-05-05T05:06:11.170Z,21.33
2023-05-05T05:09:13.824Z,23.67
2023-05-05T05:12:16.746Z,19.95
2023-05-05T05:15:19.300Z,21.37
2023-05-05T05:18:22.627Z,23.20
2023-05-05T05:21:26.081Z,20.90
2023-05-05T05:24:30.042Z,23.27
2023-05-05T05:27:32.756Z,19.65
2023-05-05T05:30:35.789Z,20.62
2023-05-05T05:33:39.814Z,24.53
2023-05-05T05:36:43.130Z,22.30
2023-05-05T05:39:52.114Z,20.12
2023-05-05T05:42:55.404Z,18.55
2023-05-05T05:45:59.313Z,21.15
2023-05-05T05:49:02.513Z,20.57
2023-05-05T05:52:05.993Z,19.37
2023-05-05T05:55:09.466Z,22.37
2023-05-05T05:58:12.663Z,20.23
2023-05-05T06:01:16.054Z,22.90
2023-05-05T06:04:19.451Z,20.70
2023-05-05T06:07:22.172Z,18.33
2023-05-05T06:10:28.214Z,18.33
2023-05-05T06:13:32.695Z,18.10
2023-05-05T06:16:35.910Z,18.05
2023-05-05T06:19:40.973Z,19.07
2023-05-05T06:22:44.314Z,20.13
2023-05-05T06:25:47.655Z,18.12
2023-05-05T06:28:50.481Z,19.15
2023-05-05T06:31:53.039Z,19.55
2023-05-05T06:34:56.065Z,21.13
2023-05-05T06:37:58.596Z,23.53
2023-05-05T06:41:01.800Z,20.83
2023-05-05T06:44:04.507Z,21.95
2023-05-05T06:47:07.296Z,19.83
2023-05-05T06:50:10.212Z,20.23
2023-05-05T06:53:13.383Z,20.30
2023-05-05T06:56:15.935Z,19.92
2023-05-05T06:59:18.652Z,21.05
2023-05-05T07:02:21.241Z,17.10
2023-05-05T07:05:24.092Z,20.50
2023-05-05T07:08:26.728Z,16.50
2023-05-05T07:11:30.103Z,16.83
2023-05-05T07:14:32.871Z,18.73
2023-05-05T07:17:35.805Z,15.32
2023-05-05T07:20:38.318Z,14.73
2023-05-05T07:23:41.132Z,14.27
2023-05-05T07:26:44.032Z,16.35
2023-05-05T07:29:48.650Z,15.05
2023-05-05T07:32:51.516Z,14.15
2023-05-05T07:35:54.424Z,14.50
2023-05-05T07:38:56.926Z,13.60
2023-05-05T07:42:01.500Z,13.95
2023-05-05T07:45:04.938Z,12.32
2023-05-05T07:48:07.828Z,12.75
2023-05-05T07:51:10.995Z,12.87
2023-05-05T07:54:13.871Z,13.77
2023-05-05T07:57:17.379Z,11.43
2023-05-05T08:00:20.417Z,11.98
2023-05-05T08:03:24.836Z,11.68
2023-05-05T08:06:28.635Z,12.33
2023-05-05T08:09:31.412Z,14.07
2023-05-05T08:12:33.934Z,11.77
2023-05-05T08:15:36.948Z,14.85
2023-05-05T08:18:39.862Z,11.45
2023-05-05T08:21:42.657Z,12.18
2023-05-05T08:24:46.221Z,13.03
2023-05-05T08:27:49.116Z,11.38
2023-05-05T08:30:52.005Z,12.73
2023-05-05T08:33:55.120Z,11.75
2023-05-05T08:36:57.659Z,14.25
2023-05-05T08:40:00.549Z,9.60
2023-05-05T08:43:03.682Z,11.48
2023-05-05T08:46:06.678Z,11.30
2023-05-05T08:49:14.801Z,11.73
2023-05-05T08:52:24.224Z,12.73
2023-05-05T08:55:27.468Z,12.90
2023-05-05T08:58:30.550Z,12.65
2023-05-05T09:01:33.942Z,12.43
2023-05-05T09:04:37.052Z,11.98
2023-05-05T09:07:43.998Z,10.07
2023-05-05T09:10:49.061Z,11.87
2023-05-05T09:13:51.650Z,10.43
2023-05-05T09:16:54.556Z,10.13
2023-05-05T09:20:04.731Z,10.00
2023-05-05T09:23:11.687Z,9.60
2023-05-05T09:26:14.476Z,10.60
2023-05-05T09:29:21.491Z,9.88
2023-05-05T09:32:24.705Z,11.57
2023-05-05T09:35:27.876Z,11.18
2023-05-05T09:38:30.655Z,12.50
2023-05-05T09:41:37.850Z,9.63
2023-05-05T09:44:40.728Z,8.27
2023-05-05T09:47:43.993Z,9.02
2023-05-05T09:50:46.560Z,8.68
2023-05-05T09:53:49.306Z,10.70
2023-05-05T09:56:57.518Z,9.10
2023-05-05T10:00:01.807Z,10.82
2023-05-05T10:03:08.198Z,7.10
2023-05-05T10:06:11.327Z,9.70
2023-05-05T10:09:14.750Z,9.63
2023-05-05T10:12:17.994Z,7.70
2023-05-05T10:15:21.451Z,6.35
2023-05-05T10:18:26.082Z,6.32
2023-05-05T10:21:33.460Z,7.87
2023-05-05T10:24:43.460Z,8.90
2023-05-05T10:27:47.904Z,6.53
2023-05-05T10:30:53.061Z,6.40
2023-05-05T10:34:07.083Z,7.57
2023-05-05T10:37:11.546Z,8.48
2023-05-05T10:40:15.244Z,7.28
2023-05-05T10:43:18.124Z,5.10
2023-05-05T10:46:20.780Z,6.37
2023-05-05T10:49:48.791Z,6.80
2023-05-05T10:53:08.399Z,6.12
2023-05-05T10:56:16.983Z,7.53
2023-05-05T10:59:38.189Z,5.23
2023-05-05T11:02:42.019Z,6.45
2023-05-05T11:06:08.836Z,5.07
2023-05-05T11:09:27.921Z,6.47
2023-05-05T11:12:31.764Z,6.20
2023-05-05T11:15:37.704Z,5.20
2023-05-05T11:18:44.374Z,5.43
2023-05-05T11:22:00.423Z,4.00
2023-05-05T11:25:45.846Z,4.50
2023-05-05T11:28:59.668Z,7.18
2023-05-05T11:32:13.138Z,6.20
2023-05-05T11:35:16.374Z,5.68
2023-05-05T11:38:19.858Z,5.78
2023-05-05T11:41:33.584Z,4.37
2023-05-05T11:44:36.250Z,5.53
2023-05-05T11:47:39.114Z,5.53
2023-05-05T11:50:43.678Z,4.62
2023-05-05T11:53:48.472Z,4.28
2023-05-05T11:56:54.503Z,4.43
2023-05-05T12:00:03.682Z,5.35
2023-05-05T12:03:07.426Z,3.93
2023-05-05T12:06:10.694Z,4.55
2023-05-05T12:09:16.394Z,4.53
2023-05-05T12:12:19.760Z,5.18
2023-05-05T12:15:30.387Z,5.97
2023-05-05T12:18:33.157Z,5.90
2023-05-05T12:21:35.884Z,4.10
2023-05-05T12:24:39.473Z,4.00
2023-05-05T12:27:52.089Z,5.72
2023-05-05T12:30:58.958Z,4.00
2023-05-05T12:34:03.098Z,3.90
2023-05-05T12:37:06.048Z,6.25
2023-05-05T12:40:44.895Z,4.05
2023-05-05T12:43:48.153Z,3.95
2023-05-05T12:46:53.002Z,4.20
2023-05-05T12:49:56.439Z,3.93
2023-05-05T12:52:58.931Z,4.07
2023-05-05T12:56:01.815Z,5.62
2023-05-05T12:59:08.713Z,5.53
2023-05-05T13:02:11.696Z,4.70
2023-05-05T13:05:14.755Z,5.17
2023-05-05T13:08:18.598Z,5.32
2023-05-05T13:11:21.618Z,4.28
2023-05-05T13:14:24.348Z,9.27
2023-05-05T13:17:26.909Z,4.50
2023-05-05T13:20:30.070Z,4.37
2023-05-05T13:23:32.917Z,3.97
2023-05-05T13:26:36.786Z,9.00
2023-05-05T13:29:40.091Z,4.78
2023-05-05T13:32:43.146Z,7.30
2023-05-05T13:35:46.109Z,5.20
2023-05-05T13:38:49.387Z,4.72
2023-05-05T13:41:51.907Z,4.18
2023-05-05T13:44:54.756Z,6.32
2023-05-05T13:47:57.293Z,4.07
2023-05-05T13:51:00.197Z,4.73
2023-05-05T13:54:03.107Z,7.10
2023-05-05T13:57:07.942Z,5.93
2023-05-05T14:00:15.023Z,4.15
2023-05-05T14:03:19.708Z,5.10
2023-05-05T14:06:28.034Z,4.07
2023-05-05T14:09:30.952Z,4.78
2023-05-05T14:15:37.618Z,5.15
2023-05-05T14:18:40.166Z,5.20
2023-05-05T14:21:42.984Z,3.90
2023-05-05T14:24:45.633Z,4.68
2023-05-05T14:27:48.510Z,3.72
2023-05-05T14:30:51.053Z,6.35
2023-05-05T14:33:54.218Z,4.37
2023-05-05T14:36:57.246Z,3.73
2023-05-05T14:40:00.234Z,3.45
2023-05-05T14:43:02.772Z,6.43
2023-05-05T14:46:07.173Z,4.45
2023-05-05T14:49:09.960Z,9.67
2023-05-05T14:52:12.735Z,5.23
2023-05-05T14:55:15.373Z,6.15
2023-05-05T14:58:22.399Z,4.68
2023-05-05T15:01:25.918Z,4.20
2023-05-05T15:04:28.970Z,5.57
2023-05-05T15:07:31.921Z,6.40
2023-05-05T15:10:34.827Z,5.40
2023-05-05T15:13:40.257Z,4.72
2023-05-05T15:16:43.360Z,5.25
2023-05-05T15:19:45.904Z,3.70
2023-05-05T15:22:49.675Z,4.40
2023-05-05T15:25:52.257Z,4.43
2023-05-05T15:28:55.089Z,5.07
2023-05-05T15:31:57.638Z,6.12
2023-05-05T15:35:00.821Z,4.53
2023-05-05T15:38:04.281Z,4.37
2023-05-05T15:41:07.418Z,5.00
2023-05-05T15:44:12.161Z,6.50
2023-05-05T15:47:14.998Z,5.22
2023-05-05T15:50:17.720Z,6.27
2023-05-05T15:53:21.299Z,4.03
2023-05-05T15:56:27.336Z,4.40
2023-05-05T15:59:30.144Z,6.68
2023-05-05T16:02:32.792Z,5.75
2023-05-05T16:05:35.689Z,6.47
2023-05-05T16:08:38.816Z,4.43
2023-05-05T16:11:41.686Z,5.93
2023-05-05T16:14:44.179Z,5.30
2023-05-05T16:17:47.028Z,5.65
2023-05-05T16:20:49.520Z,4.73
2023-05-05T16:23:52.906Z,5.07
2023-05-05T16:26:55.410Z,10.38
2023-05-05T16:29:59.695Z,5.10
2023-05-05T16:33:02.467Z,4.60
2023-05-05T16:36:05.449Z,4.20
2023-05-05T16:39:08.155Z,5.53
2023-05-05T16:42:11.019Z,6.10
2023-05-05T16:45:13.726Z,7.03
2023-05-05T16:48:18.388Z,5.07
2023-05-05T16:51:20.989Z,5.53
2023-05-05T16:54:23.728Z,5.73
2023-05-05T16:57:26.453Z,6.43
2023-05-05T17:00:29.327Z,5.80
2023-05-05T17:03:32.053Z,5.50
2023-05-05T17:06:34.890Z,5.07
2023-05-05T17:09:37.651Z,6.67
2023-05-05T17:12:40.966Z,6.95
2023-05-05T17:15:44.390Z,7.57
2023-05-05T17:18:47.260Z,5.97
2023-05-05T17:21:50.229Z,7.13
2023-05-05T17:24:52.958Z,9.97
2023-05-05T17:27:56.227Z,6.03
2023-05-05T17:31:00.007Z,7.05
2023-05-05T17:37:09.072Z,9.50
2023-05-05T17:40:11.749Z,8.33
2023-05-05T17:43:14.626Z,7.80
2023-05-05T17:46:17.283Z,9.25
2023-05-05T17:49:21.609Z,11.18
2023-05-05T17:52:25.088Z,10.83
2023-05-05T17:55:28.479Z,12.60
2023-05-05T17:58:30.974Z,11.73
2023-05-05T18:01:33.931Z,9.20
2023-05-05T18:04:37.434Z,13.98
2023-05-05T18:07:39.969Z,15.60
2023-05-05T18:10:43.377Z,22.80
2023-05-05T18:13:46.233Z,23.85
2023-05-05T18:16:52.502Z,21.75
2023-05-05T18:19:55.122Z,20.37
2023-05-05T18:22:57.919Z,26.20
2023-05-05T18:26:00.556Z,22.53
2023-05-05T18:29:03.525Z,22.13
2023-05-05T18:32:06.588Z,17.33
2023-05-05T18:35:09.909Z,13.62
2023-05-05T18:38:12.631Z,10.73
2023-05-05T18:41:15.740Z,9.53
2023-05-05T18:44:19.328Z,13.65
2023-05-05T18:47:22.125Z,12.10
2023-05-05T18:50:24.657Z,15.65
2023-05-05T18:53:27.584Z,13.17
2023-05-05T18:56:30.754Z,11.47
2023-05-05T18:59:33.756Z,12.20
2023-05-05T19:02:37.058Z,15.48
2023-05-05T19:05:41.538Z,15.70
2023-05-05T19:08:45.928Z,11.83
2023-05-05T19:11:48.794Z,15.53
2023-05-05T19:14:51.507Z,12.77
2023-05-05T19:17:54.767Z,11.45
2023-05-05T19:20:57.326Z,11.20
2023-05-05T19:24:00.166Z,12.23
2023-05-05T19:27:03.012Z,12.93
2023-05-05T19:30:08.054Z,10.85
2023-05-05T19:33:10.585Z,11.38
2023-05-05T19:36:13.463Z,10.23
2023-05-05T19:39:16.016Z,13.87
2023-05-05T19:42:19.037Z,14.17
2023-05-05T19:45:21.740Z,11.95
2023-05-05T19:48:24.584Z,11.55
2023-05-05T19:51:27.282Z,10.82
2023-05-05T19:54:30.101Z,12.23
2023-05-05T19:57:32.872Z,11.93
2023-05-05T20:00:35.758Z,11.30
2023-05-05T20:03:38.726Z,11.27
2023-05-05T20:06:41.516Z,11.27
2023-05-05T20:09:44.639Z,13.53
2023-05-05T20:12:49.159Z,12.37
2023-05-05T20:15:52.159Z,10.60
2023-05-05T20:18:54.694Z,16.42
2023-05-05T20:21:58.050Z,12.48
2023-05-05T20:28:04.364Z,11.60
2023-05-05T20:31:06.872Z,11.43
2023-05-05T20:34:09.607Z,11.68
2023-05-05T20:37:13.745Z,11.27
2023-05-05T20:40:17.039Z,12.43
2023-05-05T20:43:19.746Z,11.43
2023-05-05T20:46:22.586Z,12.40
2023-05-05T20:49:25.134Z,11.10
2023-05-05T20:52:27.939Z,14.35
2023-05-05T20:55:30.626Z,10.40
2023-05-05T20:58:33.870Z,12.67
2023-05-05T21:01:36.589Z,10.98
2023-05-05T21:04:39.378Z,11.93
2023-05-05T21:07:41.813Z,10.93
2023-05-05T21:10:44.776Z,11.93
2023-05-05T21:13:47.848Z,9.80
2023-05-05T21:16:50.818Z,14.48
2023-05-05T21:19:53.948Z,12.10
2023-05-05T21:22:56.911Z,12.27
2023-05-05T21:25:59.474Z,11.57
2023-05-05T21:29:02.284Z,11.07
2023-05-05T21:32:06.795Z,12.00
2023-05-05T21:35:10.415Z,11.77
2023-05-05T21:38:13.006Z,9.80
2023-05-05T21:41:16.786Z,11.57
2023-05-05T21:44:19.587Z,11.30
2023-05-05T21:47:22.489Z,12.50
2023-05-05T21:50:25.519Z,13.15
2023-05-05T21:53:29.475Z,11.75
2023-05-05T21:56:33.554Z,11.77
2023-05-05T21:59:36.626Z,11.63
2023-05-05T22:02:39.206Z,11.65
2023-05-05T22:05:41.972Z,14.63
2023-05-05T22:08:44.447Z,13.02
2023-05-05T22:11:47.434Z,10.40
2023-05-05T22:14:50.123Z,14.53
2023-05-05T22:17:53.026Z,11.30
2023-05-05T22:20:55.637Z,12.98
2023-05-05T22:23:58.787Z,10.07
2023-05-05T22:27:01.899Z,11.70
2023-05-05T22:30:05.073Z,11.83
2023-05-05T22:33:07.970Z,13.68
2023-05-05T22:36:11.529Z,12.68
2023-05-05T22:39:14.405Z,11.95
2023-05-05T22:42:17.234Z,10.83
2023-05-05T22:45:20.057Z,10.40
2023-05-05T22:48:23.029Z,11.40
2023-05-05T22:51:25.571Z,11.55
2023-05-05T22:54:28.313Z,11.02
2023-05-05T22:57:30.875Z,12.67
2023-05-05T23:00:33.802Z,9.90
2023-05-05T23:03:36.784Z,12.27
2023-05-05T23:06:42.390Z,11.25
2023-05-05T23:09:46.841Z,11.48
2023-05-05T23:12:50.112Z,11.33
2023-05-05T23:15:52.633Z,11.17
2023-05-05T23:18:55.515Z,11.65
2023-05-05T23:22:02.181Z,11.02
2023-05-05T23:25:05.557Z,11.70
2023-05-05T23:28:08.056Z,12.30
2023-05-05T23:31:10.881Z,13.17
2023-05-05T23:34:14.549Z,11.90
2023-05-05T23:37:17.396Z,13.13
2023-05-05T23:40:19.957Z,13.27
2023-05-05T23:43:23.112Z,13.07
2023-05-05T23:46:25.661Z,11.53
2023-05-05T23:49:28.610Z,12.02
2023-05-05T23:52:31.077Z,12.82
2023-05-05T23:55:34.388Z,13.88
2023-05-05T23:58:37.287Z,13.13
